createdAt,value
2018-06-28T00:02:26.185Z,73.50
2018-06-28T00:04:56.632Z,73.42
2018-06-28T00:07:27.180Z,73.43
2018-06-28T00:09:57.541Z,73.52
2018-06-28T00:12:28.036Z,73.42
2018-06-28T00:14:58.421Z,73.42
2018-06-28T00:17:28.908Z,73.66
2018-06-28T00:19:59.452Z,73.43
2018-06-28T00:22:29.915Z,73.57
2018-06-28T00:25:00.318Z,73.82
2018-06-28T00:27:30.880Z,73.51
2018-06-28T00:30:01.707Z,73.72
2018-06-28T00:32:32.142Z,73.29
2018-06-28T00:35:02.444Z,73.35
2018-06-28T00:37:33.012Z,73.28
2018-06-28T00:40:03.390Z,73.39
2018-06-28T00:42:33.687Z,73.65
2018-06-28T00:45:04.160Z,73.77
2018-06-28T00:47:35.044Z,73.38
2018-06-28T00:50:05.344Z,73.06
2018-06-28T00:52:35.658Z,73.48
2018-06-28T00:55:05.927Z,73.32
2018-06-28T00:57:36.360Z,73.20
2018-06-28T01:00:07.108Z,73.26
2018-06-28T01:02:37.432Z,73.30
2018-06-28T01:05:07.787Z,73.25
2018-06-28T01:07:38.081Z,73.26
2018-06-28T01:10:08.622Z,73.05
2018-06-28T01:12:39.085Z,73.21
2018-06-28T01:15:09.726Z,73.56
2018-06-28T01:17:40.240Z,73.38
2018-06-28T01:20:10.571Z,73.11
2018-06-28T01:22:40.895Z,73.85
2018-06-28T01:25:11.496Z,74.48
2018-06-28T01:27:41.796Z,75.66
2018-06-28T01:30:12.593Z,76.58
2018-06-28T01:32:43.151Z,77.89
2018-06-28T01:35:13.372Z,78.97
2018-06-28T01:37:43.902Z,79.52
2018-06-28T01:40:14.141Z,80.30
2018-06-28T01:42:55.568Z,80.17
2018-06-28T01:45:26.208Z,81.10
2018-06-28T01:47:57.931Z,82.32
2018-06-28T01:50:28.270Z,82.76
2018-06-28T01:52:58.677Z,83.22
2018-06-28T01:55:29.207Z,84.03
2018-06-28T01:57:59.642Z,84.27
2018-06-28T02:00:30.335Z,84.90
2018-06-28T02:03:00.849Z,84.86
2018-06-28T02:05:31.184Z,85.12
2018-06-28T02:08:01.837Z,85.78
2018-06-28T02:10:32.342Z,85.88
2018-06-28T02:13:02.816Z,85.79
2018-06-28T02:15:33.335Z,85.58
2018-06-28T02:18:03.646Z,85.16
2018-06-28T02:20:33.942Z,85.30
2018-06-28T02:23:04.420Z,85.76
2018-06-28T02:25:34.591Z,85.64
2018-06-28T02:28:05.558Z,86.00
2018-06-28T02:30:36.033Z,85.89
2018-06-28T02:33:09.764Z,85.48
2018-06-28T02:35:40.420Z,86.26
2018-06-28T02:38:10.893Z,86.22
2018-06-28T02:40:41.194Z,86.58
2018-06-28T02:43:11.613Z,86.79
2018-06-28T02:45:42.298Z,87.38
2018-06-28T02:48:12.843Z,87.85
2018-06-28T02:50:43.194Z,88.35
2018-06-28T02:53:13.574Z,88.64
2018-06-28T02:55:44.020Z,88.86
2018-06-28T02:58:14.232Z,89.03
2018-06-28T03:00:44.573Z,89.14
2018-06-28T03:03:14.813Z,89.68
2018-06-28T03:05:45.222Z,89.68
2018-06-28T03:08:15.537Z,90.27
2018-06-28T03:10:46.000Z,90.20
2018-06-28T03:13:16.441Z,90.62
2018-06-28T03:15:46.812Z,90.17
2018-06-28T03:18:17.065Z,90.56
2018-06-28T03:20:47.377Z,91.29
2018-06-28T03:23:17.617Z,91.22
2018-06-28T03:25:48.120Z,91.26
2018-06-28T03:28:18.460Z,91.17
2018-06-28T03:30:49.018Z,91.18
2018-06-28T03:33:19.620Z,90.90
2018-06-28T03:35:50.580Z,91.22
2018-06-28T03:38:20.967Z,91.42
2018-06-28T03:40:51.114Z,91.35
2018-06-28T03:43:21.556Z,91.79
2018-06-28T03:45:52.015Z,92.19
2018-06-28T03:48:22.388Z,91.84
2018-06-28T03:50:52.836Z,92.09
2018-06-28T03:53:23.137Z,91.79
2018-06-28T03:55:53.370Z,91.80
2018-06-28T03:58:23.645Z,91.91
2018-06-28T04:00:54.020Z,92.06
2018-06-28T04:03:24.384Z,91.74
2018-06-28T04:05:56.169Z,91.87
2018-06-28T04:08:26.465Z,92.30
2018-06-28T04:10:57.018Z,92.33
2018-06-28T04:13:27.509Z,92.53
2018-06-28T04:15:58.036Z,93.00
2018-06-28T04:18:28.504Z,92.43
2018-06-28T04:20:58.998Z,92.48
2018-06-28T04:23:29.599Z,92.40
2018-06-28T04:26:00.150Z,92.00
2018-06-28T04:28:30.461Z,91.82
2018-06-28T04:31:00.983Z,91.63
2018-06-28T04:33:31.629Z,92.13
2018-06-28T04:36:02.321Z,92.30
2018-06-28T04:38:32.626Z,91.87
2018-06-28T04:41:02.942Z,92.16
2018-06-28T04:43:33.476Z,92.18
2018-06-28T04:46:03.796Z,92.36
2018-06-28T04:48:34.197Z,92.74
2018-06-28T04:51:04.820Z,92.38
2018-06-28T04:53:35.331Z,92.22
2018-06-28T04:56:05.942Z,92.41
2018-06-28T04:58:36.213Z,91.56
2018-06-28T05:01:06.709Z,90.90
2018-06-28T05:03:36.960Z,91.34
2018-06-28T05:06:07.724Z,91.49
2018-06-28T05:08:38.313Z,90.76
2018-06-28T05:11:08.937Z,90.81
2018-06-28T05:13:39.325Z,90.91
2018-06-28T05:16:09.690Z,90.39
2018-06-28T05:18:39.988Z,90.35
2018-06-28T05:21:10.330Z,90.47
2018-06-28T05:23:40.629Z,90.39
2018-06-28T05:26:10.991Z,90.85
2018-06-28T05:28:42.368Z,90.32
2018-06-28T05:31:12.939Z,89.67
2018-06-28T05:33:44.691Z,90.11
2018-06-28T05:36:15.038Z,89.65
2018-06-28T05:38:45.451Z,90.13
2018-06-28T05:41:15.780Z,90.16
2018-06-28T05:43:46.122Z,90.61
2018-06-28T05:46:16.423Z,89.73
2018-06-28T05:48:46.975Z,89.49
2018-06-28T05:51:18.558Z,88.85
2018-06-28T05:53:48.973Z,89.14
2018-06-28T05:56:19.389Z,88.93
2018-06-28T05:58:49.794Z,88.55
2018-06-28T06:01:20.216Z,88.09
2018-06-28T06:03:50.453Z,88.73
2018-06-28T06:06:20.910Z,89.29
2018-06-28T06:08:51.086Z,89.00
2018-06-28T06:11:21.479Z,87.88
2018-06-28T06:13:52.009Z,87.70
2018-06-28T06:16:22.801Z,87.96
2018-06-28T06:18:53.272Z,88.15
2018-06-28T06:21:23.663Z,87.39
2018-06-28T06:23:54.245Z,86.16
2018-06-28T06:26:24.728Z,85.39
2018-06-28T06:28:55.088Z,84.74
2018-06-28T06:31:25.512Z,84.51
2018-06-28T06:33:58.968Z,84.05
2018-06-28T06:36:29.359Z,84.11
2018-06-28T06:39:00.050Z,82.67
2018-06-28T06:41:30.637Z,82.18
2018-06-28T06:44:01.028Z,80.89
2018-06-28T06:46:31.714Z,80.52
2018-06-28T06:49:02.159Z,80.09
2018-06-28T06:51:32.485Z,80.28
2018-06-28T06:54:02.855Z,79.32
2018-06-28T06:56:33.298Z,78.66
2018-06-28T06:59:04.020Z,78.59
2018-06-28T07:01:34.419Z,78.40
2018-06-28T07:04:04.968Z,78.47
2018-06-28T07:06:35.430Z,78.59
2018-06-28T07:09:09.017Z,77.79
2018-06-28T07:11:39.994Z,76.36
2018-06-28T07:14:10.877Z,74.94
2018-06-28T07:16:41.784Z,75.57
2018-06-28T07:19:12.265Z,75.82
2018-06-28T07:21:42.607Z,76.06
2018-06-28T07:24:12.993Z,75.30
2018-06-28T07:26:43.523Z,74.84
2018-06-28T07:29:14.013Z,75.73
2018-06-28T07:31:44.572Z,76.01
2018-06-28T07:34:15.135Z,76.44
2018-06-28T07:36:45.324Z,76.78
2018-06-28T07:39:15.557Z,76.31
2018-06-28T07:41:45.928Z,77.14
2018-06-28T07:44:16.157Z,77.02
2018-06-28T07:46:46.860Z,76.71
2018-06-28T07:49:17.345Z,77.42
2018-06-28T07:51:48.039Z,76.35
2018-06-28T07:54:18.700Z,76.26
2018-06-28T07:56:49.313Z,76.02
2018-06-28T07:59:19.648Z,74.37
2018-06-28T08:01:49.969Z,73.49
2018-06-28T08:04:21.256Z,73.83
2018-06-28T08:06:51.415Z,74.00
2018-06-28T08:09:21.778Z,72.85
2018-06-28T08:11:52.490Z,73.03
2018-06-28T08:14:23.489Z,71.90
2018-06-28T08:16:54.065Z,72.64
2018-06-28T08:19:24.846Z,72.52
2018-06-28T08:21:55.240Z,72.35
2018-06-28T08:24:25.878Z,71.78
2018-06-28T08:26:56.188Z,71.93
2018-06-28T08:29:26.791Z,71.62
2018-06-28T08:31:57.316Z,70.35
2018-06-28T08:34:28.193Z,68.36
2018-06-28T08:36:58.464Z,67.69
2018-06-28T08:39:28.812Z,67.54
2018-06-28T08:42:01.438Z,65.42
2018-06-28T08:44:32.652Z,64.74
2018-06-28T08:47:03.147Z,64.29
2018-06-28T08:49:33.549Z,65.01
2018-06-28T08:52:04.441Z,65.79
2018-06-28T08:54:34.770Z,67.26
2018-06-28T08:57:05.221Z,67.51
2018-06-28T08:59:36.017Z,68.12
2018-06-28T09:02:06.553Z,69.21
2018-06-28T09:04:36.890Z,70.36
2018-06-28T09:07:07.397Z,70.42
2018-06-28T09:09:39.321Z,70.73
2018-06-28T09:12:09.620Z,70.76
2018-06-28T09:14:39.883Z,70.41
2018-06-28T09:17:10.236Z,69.73
2018-06-28T09:19:40.534Z,70.22
2018-06-28T09:22:10.875Z,70.23
2018-06-28T09:24:41.836Z,70.79
2018-06-28T09:27:12.198Z,70.87
2018-06-28T09:29:42.532Z,71.25
2018-06-28T09:32:13.162Z,71.57
2018-06-28T09:34:43.514Z,71.89
2018-06-28T09:37:13.801Z,71.66
2018-06-28T09:39:44.468Z,72.40
2018-06-28T09:42:14.723Z,72.38
2018-06-28T09:44:45.110Z,72.30
2018-06-28T09:47:15.520Z,72.89
2018-06-28T09:49:45.758Z,73.02
2018-06-28T09:52:16.158Z,72.73
2018-06-28T09:54:46.666Z,72.82
2018-06-28T09:57:17.190Z,73.58
2018-06-28T09:59:47.510Z,74.31
2018-06-28T10:02:18.029Z,74.60
2018-06-28T10:04:48.505Z,73.79
2018-06-28T10:07:18.979Z,72.84
2018-06-28T10:09:49.278Z,71.62
2018-06-28T10:12:19.837Z,72.10
2018-06-28T10:14:50.439Z,71.74
2018-06-28T10:17:20.753Z,71.77
2018-06-28T10:19:51.085Z,70.12
2018-06-28T10:22:21.696Z,69.17
2018-06-28T10:24:52.177Z,68.46
2018-06-28T10:27:22.752Z,67.94
2018-06-28T10:29:53.394Z,67.59
2018-06-28T10:32:23.806Z,66.43
2018-06-28T10:34:54.382Z,66.82
2018-06-28T10:37:24.964Z,65.92
2018-06-28T10:39:55.484Z,66.10
2018-06-28T10:42:26.045Z,65.45
2018-06-28T10:44:56.589Z,66.23
2018-06-28T10:47:27.432Z,65.78
2018-06-28T10:49:57.672Z,66.79
2018-06-28T10:52:27.999Z,66.18
2018-06-28T10:54:58.463Z,66.30
2018-06-28T10:57:29.432Z,66.03
2018-06-28T10:59:59.729Z,65.55
2018-06-28T11:02:29.905Z,66.64
2018-06-28T11:05:00.148Z,66.50
2018-06-28T11:07:30.732Z,66.33
2018-06-28T11:10:00.964Z,66.95
2018-06-28T11:12:31.277Z,66.42
2018-06-28T11:15:01.705Z,66.29
2018-06-28T11:17:31.983Z,66.71
2018-06-28T11:20:03.921Z,67.22
2018-06-28T11:22:34.171Z,66.91
2018-06-28T11:25:04.810Z,66.75
2018-06-28T11:27:35.271Z,67.18
2018-06-28T11:30:05.890Z,67.32
2018-06-28T11:32:36.321Z,68.31
2018-06-28T11:35:06.752Z,67.00
2018-06-28T11:37:37.018Z,66.80
2018-06-28T11:40:07.373Z,65.69
2018-06-28T11:42:37.727Z,65.77
2018-06-28T11:45:08.326Z,64.81
2018-06-28T11:47:38.873Z,63.78
2018-06-28T11:50:09.304Z,63.45
2018-06-28T11:52:39.795Z,63.70
2018-06-28T11:55:10.354Z,62.52
2018-06-28T11:57:41.655Z,61.66
2018-06-28T12:00:12.336Z,60.93
2018-06-28T12:02:43.548Z,60.14
2018-06-28T12:05:14.273Z,58.52
2018-06-28T12:07:44.897Z,56.69
2018-06-28T12:10:15.562Z,56.12
2018-06-28T12:12:46.879Z,57.87
2018-06-28T12:15:17.415Z,57.73
2018-06-28T12:17:48.553Z,58.08
2018-06-28T12:20:19.074Z,57.99
2018-06-28T12:22:49.554Z,58.10
2018-06-28T12:25:19.926Z,59.41
2018-06-28T12:27:50.362Z,59.06
2018-06-28T12:30:20.992Z,59.25
2018-06-28T12:32:51.565Z,58.63
2018-06-28T12:35:23.108Z,56.76
2018-06-28T12:37:53.638Z,57.43
2018-06-28T12:40:23.939Z,57.33
2018-06-28T12:42:54.487Z,57.83
2018-06-28T12:45:24.728Z,58.55
2018-06-28T12:48:00.521Z,58.20
2018-06-28T12:50:30.854Z,57.54
2018-06-28T12:53:03.924Z,57.51
2018-06-28T12:56:44.588Z,57.87
2018-06-28T13:01:45.538Z,56.64
2018-06-28T13:04:15.895Z,58.24
2018-06-28T13:06:46.473Z,56.83
2018-06-28T13:09:17.817Z,56.13
2018-06-28T13:11:48.522Z,56.26
2018-06-28T13:14:18.765Z,57.01
2018-06-28T13:16:49.084Z,56.41
2018-06-28T13:19:19.485Z,55.73
2018-06-28T13:21:49.788Z,56.43
2018-06-28T13:24:20.210Z,56.63
2018-06-28T13:26:50.560Z,57.36
2018-06-28T13:29:20.997Z,58.06
2018-06-28T13:31:51.681Z,59.53
2018-06-28T13:34:22.183Z,59.56
2018-06-28T13:36:52.687Z,59.38
2018-06-28T13:39:23.028Z,59.91
2018-06-28T13:41:53.403Z,59.43
2018-06-28T13:44:23.675Z,59.47
2018-06-28T13:46:54.300Z,59.53
2018-06-28T13:49:24.693Z,59.13
2018-06-28T13:51:55.204Z,58.06
2018-06-28T13:54:26.422Z,58.03
2018-06-28T13:56:56.823Z,57.08
2018-06-28T13:59:27.215Z,57.97
2018-06-28T14:01:57.564Z,58.91
2018-06-28T14:04:28.855Z,58.89
2018-06-28T14:06:59.320Z,58.72
2018-06-28T14:09:29.778Z,58.64
2018-06-28T14:12:00.171Z,59.23
2018-06-28T14:14:31.664Z,59.15
2018-06-28T14:17:02.513Z,59.52
2018-06-28T14:19:32.949Z,59.54
2018-06-28T14:22:03.615Z,59.61
2018-06-28T14:24:35.747Z,59.39
2018-06-28T14:27:06.507Z,58.99
2018-06-28T14:29:37.160Z,58.60
2018-06-28T14:32:07.683Z,58.09
2018-06-28T14:34:38.065Z,58.66
2018-06-28T14:37:08.756Z,58.93
2018-06-28T14:39:38.988Z,58.89
2018-06-28T14:42:09.548Z,58.42
2018-06-28T14:44:40.729Z,58.83
2018-06-28T14:47:10.987Z,58.26
2018-06-28T14:49:41.284Z,59.71
2018-06-28T14:52:11.498Z,59.30
2018-06-28T14:54:41.844Z,58.53
2018-06-28T14:57:12.318Z,58.94
2018-06-28T14:59:43.014Z,58.68
2018-06-28T15:02:13.340Z,59.45
2018-06-28T15:04:44.022Z,59.45
2018-06-28T15:07:15.516Z,60.70
2018-06-28T15:09:46.157Z,61.08
2018-06-28T15:12:16.545Z,61.76
2018-06-28T15:14:47.061Z,62.37
2018-06-28T15:17:17.632Z,63.21
2018-06-28T15:19:48.098Z,62.84
2018-06-28T15:22:18.671Z,63.56
2018-06-28T15:24:49.101Z,63.38
2018-06-28T15:27:19.531Z,64.93
2018-06-28T15:29:50.137Z,65.03
2018-06-28T15:32:20.431Z,65.64
2018-06-28T15:34:50.897Z,66.37
2018-06-28T15:37:21.300Z,67.23
2018-06-28T15:39:51.751Z,67.81
2018-06-28T15:42:22.332Z,68.09
2018-06-28T15:44:52.630Z,69.27
2018-06-28T15:47:23.203Z,71.03
2018-06-28T15:49:53.813Z,71.84
2018-06-28T15:53:04.781Z,73.40
2018-06-28T15:55:35.342Z,74.16
2018-06-28T15:58:06.089Z,74.20
2018-06-28T16:00:36.371Z,74.52
2018-06-28T16:03:06.601Z,75.60
2018-06-28T16:05:36.962Z,76.03
2018-06-28T16:08:07.488Z,76.25
2018-06-28T16:10:37.757Z,76.33
2018-06-28T16:13:08.193Z,76.42
2018-06-28T16:15:38.443Z,76.27
2018-06-28T16:18:08.693Z,76.70
2018-06-28T16:20:38.933Z,77.01
2018-06-28T16:23:09.409Z,76.71
2018-06-28T16:25:39.793Z,76.20
2018-06-28T16:28:10.473Z,76.31
2018-06-28T16:30:41.029Z,75.76
2018-06-28T16:33:12.518Z,75.30
2018-06-28T16:35:43.864Z,75.10
2018-06-28T16:38:14.222Z,74.88
2018-06-28T16:40:44.430Z,74.82
2018-06-28T16:43:14.859Z,74.60
2018-06-28T16:45:45.102Z,74.66
2018-06-28T16:48:15.849Z,74.58
2018-06-28T16:50:46.562Z,74.19
2018-06-28T16:53:17.110Z,74.08
2018-06-28T16:55:47.581Z,73.53
2018-06-28T16:58:18.142Z,73.69
2018-06-28T17:00:48.989Z,72.93
2018-06-28T17:03:19.685Z,73.31
2018-06-28T17:05:50.676Z,73.37
2018-06-28T17:08:20.851Z,72.75
2018-06-28T17:10:51.083Z,72.54
2018-06-28T17:13:21.670Z,72.62
2018-06-28T17:15:52.089Z,73.04
2018-06-28T17:18:22.376Z,72.89
2018-06-28T17:20:54.221Z,72.74
2018-06-28T17:23:24.656Z,72.65
2018-06-28T17:25:55.033Z,72.72
2018-06-28T17:28:25.378Z,72.45
2018-06-28T17:30:55.820Z,72.26
2018-06-28T17:33:26.326Z,73.02
2018-06-28T17:35:56.596Z,73.23
2018-06-28T17:38:28.044Z,73.02
2018-06-28T17:40:58.471Z,73.24
2018-06-28T17:43:28.953Z,73.45
2018-06-28T17:45:59.275Z,73.74
2018-06-28T17:48:29.529Z,73.38
2018-06-28T17:50:59.793Z,73.26
2018-06-28T17:53:31.010Z,73.14
2018-06-28T17:56:01.362Z,73.38
2018-06-28T17:58:31.610Z,73.37
2018-06-28T18:01:01.906Z,73.48
2018-06-28T18:03:32.189Z,73.23
2018-06-28T18:06:03.242Z,73.09
2018-06-28T18:08:33.589Z,73.72
2018-06-28T18:11:04.021Z,73.70
2018-06-28T18:13:34.395Z,73.55
2018-06-28T18:16:04.759Z,72.41
2018-06-28T18:18:35.298Z,72.70
2018-06-28T18:21:05.625Z,72.74
2018-06-28T18:23:35.892Z,73.06
2018-06-28T18:26:06.611Z,72.28
2018-06-28T18:28:37.238Z,72.24
2018-06-28T18:31:07.709Z,71.86
2018-06-28T18:33:38.278Z,72.31
2018-06-28T18:36:08.784Z,72.56
2018-06-28T18:38:40.299Z,72.57
2018-06-28T18:41:10.936Z,72.02
2018-06-28T18:43:42.088Z,71.83
2018-06-28T18:46:12.710Z,71.93
2018-06-28T18:48:43.391Z,71.47
2018-06-28T18:51:13.676Z,70.71
2018-06-28T18:53:43.991Z,71.07
2018-06-28T18:56:14.206Z,70.59
2018-06-28T18:58:44.665Z,70.45
2018-06-28T19:01:15.673Z,70.01
2018-06-28T19:03:46.202Z,70.82
2018-06-28T19:06:16.583Z,70.36
2018-06-28T19:08:46.952Z,70.76
2018-06-28T19:11:17.329Z,71.15
2018-06-28T19:13:52.364Z,71.06
2018-06-28T19:16:27.582Z,70.76
2018-06-28T19:18:58.188Z,70.79
2018-06-28T19:21:33.660Z,71.00
2018-06-28T19:24:04.269Z,70.87
2018-06-28T19:26:34.989Z,70.75
2018-06-28T19:29:10.424Z,70.66
2018-06-28T19:31:46.162Z,70.93
2018-06-28T19:34:17.051Z,71.13
2018-06-28T19:36:47.790Z,70.56
2018-06-28T19:39:23.199Z,70.28
2018-06-28T19:41:58.604Z,70.17
2018-06-28T19:44:29.028Z,70.41
2018-06-28T19:47:00.658Z,70.46
2018-06-28T19:49:37.234Z,70.91
2018-06-28T19:52:13.067Z,70.90
2018-06-28T19:54:43.457Z,70.55
2018-06-28T19:57:13.937Z,70.25
2018-06-28T19:59:48.415Z,70.84
2018-06-28T20:02:23.976Z,70.70
2018-06-28T20:04:54.436Z,69.80
2018-06-28T20:07:24.875Z,70.34
2018-06-28T20:09:55.584Z,69.71
2018-06-28T20:12:30.927Z,70.34
2018-06-28T20:15:06.680Z,70.20
2018-06-28T20:17:47.180Z,70.96
2018-06-28T20:20:19.547Z,70.49
2018-06-28T20:22:50.299Z,70.56
2018-06-28T20:25:20.689Z,70.71
2018-06-28T20:29:59.469Z,70.29
2018-06-28T20:32:34.732Z,69.63
2018-06-28T20:35:05.145Z,69.75
2018-06-28T20:37:35.619Z,69.87
2018-06-28T20:40:06.224Z,69.93
2018-06-28T20:42:37.098Z,70.00
2018-06-28T20:45:07.687Z,70.35
2018-06-28T20:47:37.964Z,70.49
2018-06-28T20:50:08.577Z,70.49
2018-06-28T20:52:38.962Z,71.06
2018-06-28T20:55:10.225Z,71.03
2018-06-28T20:57:40.992Z,71.36
2018-06-28T21:00:11.767Z,70.83
2018-06-28T21:02:51.984Z,71.70
2018-06-28T21:05:22.605Z,71.13
2018-06-28T21:07:52.985Z,71.06
2018-06-28T21:10:23.481Z,71.59
2018-06-28T21:12:54.588Z,71.91
2018-06-28T21:15:25.293Z,72.61
2018-06-28T21:17:57.971Z,72.88
2018-06-28T21:20:28.471Z,72.96
2018-06-28T21:22:58.773Z,73.29
2018-06-28T21:25:29.180Z,74.08
2018-06-28T21:27:59.537Z,73.76
2018-06-28T21:30:31.113Z,73.66
2018-06-28T21:33:01.851Z,73.90
2018-06-28T21:35:32.151Z,73.89
2018-06-28T21:38:02.491Z,74.25
2018-06-28T21:40:32.892Z,74.94
2018-06-28T21:43:03.523Z,75.02
2018-06-28T21:45:33.866Z,75.42
2018-06-28T21:48:04.245Z,75.49
2018-06-28T21:50:34.937Z,76.22
2018-06-28T21:53:06.272Z,76.10
2018-06-28T21:55:37.429Z,75.80
2018-06-28T21:58:08.082Z,76.32
2018-06-28T22:00:39.527Z,76.30
2018-06-28T22:03:09.925Z,76.01
2018-06-28T22:05:40.316Z,76.38
2018-06-28T22:08:10.827Z,76.18
2018-06-28T22:10:41.313Z,76.85
2018-06-28T22:13:11.655Z,76.83
2018-06-28T22:15:42.019Z,76.72
2018-06-28T22:18:12.367Z,76.98
2018-06-28T22:20:42.912Z,76.63
2018-06-28T22:23:13.395Z,76.44
2018-06-28T22:25:43.755Z,76.40
2018-06-28T22:28:15.385Z,76.82
2018-06-28T22:30:45.756Z,77.08
2018-06-28T22:33:16.258Z,76.27
2018-06-28T22:35:46.650Z,76.49
2018-06-28T22:38:17.347Z,77.11
2018-06-28T22:40:47.595Z,76.64
2018-06-28T22:43:17.953Z,76.52
2018-06-28T22:45:48.512Z,76.61
2018-06-28T22:48:18.728Z,76.93
2018-06-28T22:50:49.084Z,77.62
2018-06-28T22:53:19.428Z,78.07
2018-06-28T22:55:49.801Z,78.25
2018-06-28T22:58:20.180Z,78.40
2018-06-28T23:00:50.266Z,78.35
2018-06-28T23:03:20.699Z,78.24
2018-06-28T23:05:51.189Z,78.24
2018-06-28T23:08:21.659Z,77.94
2018-06-28T23:10:52.196Z,77.64
2018-06-28T23:13:22.650Z,77.77
2018-06-28T23:15:53.169Z,77.70
2018-06-28T23:18:23.688Z,77.75
2018-06-28T23:20:54.161Z,78.26
2018-06-28T23:23:24.651Z,77.72
2018-06-28T23:25:55.300Z,77.69
2018-06-28T23:28:26.017Z,77.91
2018-06-28T23:30:57.236Z,77.52
2018-06-28T23:33:27.502Z,77.98
2018-06-28T23:35:58.202Z,78.37
2018-06-28T23:38:28.719Z,78.57
2018-06-28T23:40:59.102Z,78.46
2018-06-28T23:43:29.703Z,78.63
2018-06-28T23:46:00.052Z,78.60
2018-06-28T23:48:30.312Z,79.25
2018-06-28T23:51:00.735Z,79.59
2018-06-28T23:53:31.424Z,79.04
2018-06-28T23:56:01.914Z,79.58
2018-06-28T23:58:32.447Z,79.78
